sensor_id;sensor_type;location;lat;lon;timestamp;temperature;humidity
21481;DHT22;10902;48.158;8.634;2023-02-28T00:02:21;-3.00;99.90
21481;DHT22;10902;48.158;8.634;2023-02-28T00:04:46;-3.00;99.90
21481;DHT22;10902;48.158;8.634;2023-02-28T00:07:18;-3.00;99.90
21481;DHT22;10902;48.158;8.634;2023-02-28T00:09:44;-3.00;99.90
21481;DHT22;10902;48.158;8.634;2023-02-28T00:12:09;-3.00;99.90
21481;DHT22;10902;48.158;8.634;2023-02-28T00:14:36;-3.00;99.90
21481;DHT22;10902;48.158;8.634;2023-02-28T00:17:02;-2.90;99.90
21481;DHT22;10902;48.158;8.634;2023-02-28T00:19:27;-3.00;99.90
21481;DHT22;10902;48.158;8.634;2023-02-28T00:21:53;-3.00;99.90
21481;DHT22;10902;48.158;8.634;2023-02-28T00:24:18;-2.90;99.90
21481;DHT22;10902;48.158;8.634;2023-02-28T00:26:44;-2.90;99.90
21481;DHT22;10902;48.158;8.634;2023-02-28T00:29:09;-2.90;99.90
21481;DHT22;10902;48.158;8.634;2023-02-28T00:31:35;-2.90;99.90
21481;DHT22;10902;48.158;8.634;2023-02-28T00:34:00;-2.90;99.90
21481;DHT22;10902;48.158;8.634;2023-02-28T00:36:26;-2.90;99.90
21481;DHT22;10902;48.158;8.634;2023-02-28T00:38:52;-2.90;99.90
21481;DHT22;10902;48.158;8.634;2023-02-28T00:41:17;-2.90;99.90
21481;DHT22;10902;48.158;8.634;2023-02-28T00:43:43;-2.90;99.90
21481;DHT22;10902;48.158;8.634;2023-02-28T00:46:09;-2.90;99.90
21481;DHT22;10902;48.158;8.634;2023-02-28T00:48:35;-2.90;99.90
21481;DHT22;10902;48.158;8.634;2023-02-28T00:51:01;-2.90;99.90
21481;DHT22;10902;48.158;8.634;2023-02-28T00:53:27;-2.90;99.90
21481;DHT22;10902;48.158;8.634;2023-02-28T00:55:53;-2.90;99.90
21481;DHT22;10902;48.158;8.634;2023-02-28T00:58:19;-2.90;99.90
21481;DHT22;10902;48.158;8.634;2023-02-28T01:00:45;-2.80;99.90
21481;DHT22;10902;48.158;8.634;2023-02-28T01:03:15;-2.90;99.90
21481;DHT22;10902;48.158;8.634;2023-02-28T01:05:41;-3.00;99.90
21481;DHT22;10902;48.158;8.634;2023-02-28T01:08:06;-2.90;99.90
21481;DHT22;10902;48.158;8.634;2023-02-28T01:10:32;-2.90;99.90
21481;DHT22;10902;48.158;8.634;2023-02-28T01:12:58;-3.00;99.90
21481;DHT22;10902;48.158;8.634;2023-02-28T01:15:23;-3.00;99.90
21481;DHT22;10902;48.158;8.634;2023-02-28T01:17:49;-3.10;99.90
21481;DHT22;10902;48.158;8.634;2023-02-28T01:20:15;-3.00;99.90
21481;DHT22;10902;48.158;8.634;2023-02-28T01:22:40;-3.00;99.90
21481;DHT22;10902;48.158;8.634;2023-02-28T01:25:06;-3.10;99.90
21481;DHT22;10902;48.158;8.634;2023-02-28T01:27:33;-3.10;99.90
21481;DHT22;10902;48.158;8.634;2023-02-28T01:29:59;-3.10;99.90
21481;DHT22;10902;48.158;8.634;2023-02-28T01:32:24;-3.10;99.90
21481;DHT22;10902;48.158;8.634;2023-02-28T01:34:50;-3.10;99.90
21481;DHT22;10902;48.158;8.634;2023-02-28T01:37:15;-3.00;99.90
21481;DHT22;10902;48.158;8.634;2023-02-28T01:39:41;-3.00;99.90
21481;DHT22;10902;48.158;8.634;2023-02-28T01:42:09;-3.10;99.90
21481;DHT22;10902;48.158;8.634;2023-02-28T01:47:41;-3.10;99.90
21481;DHT22;10902;48.158;8.634;2023-02-28T01:50:13;-3.00;99.90
21481;DHT22;10902;48.158;8.634;2023-02-28T01:52:40;-3.00;99.90
21481;DHT22;10902;48.158;8.634;2023-02-28T01:55:08;-3.10;99.90
21481;DHT22;10902;48.158;8.634;2023-02-28T01:57:46;-3.20;99.90
21481;DHT22;10902;48.158;8.634;2023-02-28T02:00:16;-3.20;99.90
21481;DHT22;10902;48.158;8.634;2023-02-28T02:02:45;-3.10;99.90
21481;DHT22;10902;48.158;8.634;2023-02-28T02:05:20;-3.10;99.90
21481;DHT22;10902;48.158;8.634;2023-02-28T02:07:48;-3.20;99.90
21481;DHT22;10902;48.158;8.634;2023-02-28T02:10:21;-3.20;99.90
21481;DHT22;10902;48.158;8.634;2023-02-28T02:15:16;-3.20;99.90
21481;DHT22;10902;48.158;8.634;2023-02-28T02:17:48;-3.20;99.90
21481;DHT22;10902;48.158;8.634;2023-02-28T02:28:53;-3.30;99.90
21481;DHT22;10902;48.158;8.634;2023-02-28T02:31:29;-3.40;99.90
21481;DHT22;10902;48.158;8.634;2023-02-28T02:39:32;-3.50;99.90
21481;DHT22;10902;48.158;8.634;2023-02-28T02:42:02;-3.50;99.90
21481;DHT22;10902;48.158;8.634;2023-02-28T02:44:34;-3.50;99.90
21481;DHT22;10902;48.158;8.634;2023-02-28T02:47:08;-3.60;99.90
21481;DHT22;10902;48.158;8.634;2023-02-28T02:49:36;-3.60;99.90
21481;DHT22;10902;48.158;8.634;2023-02-28T02:52:06;-3.50;99.90
21481;DHT22;10902;48.158;8.634;2023-02-28T02:54:38;-3.60;99.90
21481;DHT22;10902;48.158;8.634;2023-02-28T02:57:57;-3.50;99.90
21481;DHT22;10902;48.158;8.634;2023-02-28T02:59:59;-3.50;99.90
21481;DHT22;10902;48.158;8.634;2023-02-28T03:02:26;-3.60;99.90
21481;DHT22;10902;48.158;8.634;2023-02-28T03:05:02;-3.60;99.90
21481;DHT22;10902;48.158;8.634;2023-02-28T03:07:29;-3.60;99.90
21481;DHT22;10902;48.158;8.634;2023-02-28T03:09:56;-3.70;99.90
21481;DHT22;10902;48.158;8.634;2023-02-28T03:12:51;-3.70;99.90
21481;DHT22;10902;48.158;8.634;2023-02-28T03:15:37;-3.80;99.90
21481;DHT22;10902;48.158;8.634;2023-02-28T03:18:32;-3.80;99.90
21481;DHT22;10902;48.158;8.634;2023-02-28T03:24:37;-3.80;99.90
21481;DHT22;10902;48.158;8.634;2023-02-28T03:27:36;-3.80;99.90
21481;DHT22;10902;48.158;8.634;2023-02-28T03:30:05;-3.70;99.90
21481;DHT22;10902;48.158;8.634;2023-02-28T03:32:35;-3.70;99.90
21481;DHT22;10902;48.158;8.634;2023-02-28T03:35:14;-3.60;99.90
21481;DHT22;10902;48.158;8.634;2023-02-28T03:37:49;-3.60;99.90
21481;DHT22;10902;48.158;8.634;2023-02-28T03:40:23;-3.60;99.90
21481;DHT22;10902;48.158;8.634;2023-02-28T03:42:56;-3.70;99.90
21481;DHT22;10902;48.158;8.634;2023-02-28T03:45:30;-3.70;99.90
21481;DHT22;10902;48.158;8.634;2023-02-28T03:50:38;-3.80;99.90
21481;DHT22;10902;48.158;8.634;2023-02-28T03:55:39;-3.80;99.90
21481;DHT22;10902;48.158;8.634;2023-02-28T04:00:47;-4.00;99.90
21481;DHT22;10902;48.158;8.634;2023-02-28T04:03:14;-3.90;99.90
21481;DHT22;10902;48.158;8.634;2023-02-28T04:06:00;-3.90;99.90
21481;DHT22;10902;48.158;8.634;2023-02-28T04:08:26;-3.90;99.90
21481;DHT22;10902;48.158;8.634;2023-02-28T04:10:56;-3.90;99.90
21481;DHT22;10902;48.158;8.634;2023-02-28T04:13:23;-3.90;99.90
21481;DHT22;10902;48.158;8.634;2023-02-28T04:15:49;-3.90;99.90
21481;DHT22;10902;48.158;8.634;2023-02-28T04:18:14;-4.00;99.90
21481;DHT22;10902;48.158;8.634;2023-02-28T04:20:40;-4.00;99.90
21481;DHT22;10902;48.158;8.634;2023-02-28T04:23:05;-3.90;99.90
21481;DHT22;10902;48.158;8.634;2023-02-28T04:25:31;-3.90;99.90
21481;DHT22;10902;48.158;8.634;2023-02-28T04:27:56;-3.90;99.90
21481;DHT22;10902;48.158;8.634;2023-02-28T04:30:22;-3.90;99.90
21481;DHT22;10902;48.158;8.634;2023-02-28T04:32:47;-3.90;99.90
21481;DHT22;10902;48.158;8.634;2023-02-28T04:35:13;-3.90;99.90
21481;DHT22;10902;48.158;8.634;2023-02-28T04:37:38;-3.90;99.90
21481;DHT22;10902;48.158;8.634;2023-02-28T04:40:04;-3.80;99.90
21481;DHT22;10902;48.158;8.634;2023-02-28T04:42:30;-3.70;99.90
21481;DHT22;10902;48.158;8.634;2023-02-28T04:45:03;-3.90;99.90
21481;DHT22;10902;48.158;8.634;2023-02-28T04:47:29;-3.90;99.90
21481;DHT22;10902;48.158;8.634;2023-02-28T04:49:55;-4.00;99.90
21481;DHT22;10902;48.158;8.634;2023-02-28T04:52:20;-3.90;99.90
21481;DHT22;10902;48.158;8.634;2023-02-28T04:54:46;-3.80;99.90
21481;DHT22;10902;48.158;8.634;2023-02-28T04:57:11;-3.70;99.90
21481;DHT22;10902;48.158;8.634;2023-02-28T04:59:37;-3.90;99.90
21481;DHT22;10902;48.158;8.634;2023-02-28T05:02:03;-3.70;99.90
21481;DHT22;10902;48.158;8.634;2023-02-28T05:04:33;-3.70;99.90
21481;DHT22;10902;48.158;8.634;2023-02-28T05:07:00;-3.70;99.90
21481;DHT22;10902;48.158;8.634;2023-02-28T05:09:25;-3.80;99.90
21481;DHT22;10902;48.158;8.634;2023-02-28T05:11:51;-3.70;99.90
21481;DHT22;10902;48.158;8.634;2023-02-28T05:14:17;-3.70;99.90
21481;DHT22;10902;48.158;8.634;2023-02-28T05:16:42;-3.70;99.90
21481;DHT22;10902;48.158;8.634;2023-02-28T05:19:08;-3.90;99.90
21481;DHT22;10902;48.158;8.634;2023-02-28T05:21:39;-3.90;99.90
21481;DHT22;10902;48.158;8.634;2023-02-28T05:24:14;-3.90;99.90
21481;DHT22;10902;48.158;8.634;2023-02-28T05:26:41;-4.00;99.90
21481;DHT22;10902;48.158;8.634;2023-02-28T05:29:07;-4.10;99.90
21481;DHT22;10902;48.158;8.634;2023-02-28T05:31:33;-4.00;99.90
21481;DHT22;10902;48.158;8.634;2023-02-28T05:33:59;-4.00;99.90
21481;DHT22;10902;48.158;8.634;2023-02-28T05:36:24;-3.90;99.90
21481;DHT22;10902;48.158;8.634;2023-02-28T05:38:50;-3.80;99.90
21481;DHT22;10902;48.158;8.634;2023-02-28T05:41:17;-3.90;99.90
21481;DHT22;10902;48.158;8.634;2023-02-28T05:43:44;-3.90;99.90
21481;DHT22;10902;48.158;8.634;2023-02-28T05:46:11;-3.90;99.90
21481;DHT22;10902;48.158;8.634;2023-02-28T05:48:38;-3.90;99.90
21481;DHT22;10902;48.158;8.634;2023-02-28T05:51:04;-3.80;99.90
21481;DHT22;10902;48.158;8.634;2023-02-28T05:53:31;-3.90;99.90
21481;DHT22;10902;48.158;8.634;2023-02-28T05:55:56;-3.80;99.90
21481;DHT22;10902;48.158;8.634;2023-02-28T05:58:22;-4.00;99.90
21481;DHT22;10902;48.158;8.634;2023-02-28T06:00:48;-3.90;99.90
21481;DHT22;10902;48.158;8.634;2023-02-28T06:03:14;-3.80;99.90
21481;DHT22;10902;48.158;8.634;2023-02-28T06:05:40;-3.80;99.90
21481;DHT22;10902;48.158;8.634;2023-02-28T06:08:06;-3.90;99.90
21481;DHT22;10902;48.158;8.634;2023-02-28T06:10:33;-3.90;99.90
21481;DHT22;10902;48.158;8.634;2023-02-28T06:13:03;-3.80;99.90
21481;DHT22;10902;48.158;8.634;2023-02-28T06:15:29;-3.90;99.90
21481;DHT22;10902;48.158;8.634;2023-02-28T06:17:55;-3.90;99.90
21481;DHT22;10902;48.158;8.634;2023-02-28T06:20:22;-3.90;99.90
21481;DHT22;10902;48.158;8.634;2023-02-28T06:22:48;-3.90;99.90
21481;DHT22;10902;48.158;8.634;2023-02-28T06:25:15;-3.80;99.90
21481;DHT22;10902;48.158;8.634;2023-02-28T06:27:41;-3.90;99.90
21481;DHT22;10902;48.158;8.634;2023-02-28T06:30:07;-3.70;99.90
21481;DHT22;10902;48.158;8.634;2023-02-28T06:32:32;-3.70;99.90
21481;DHT22;10902;48.158;8.634;2023-02-28T06:34:58;-3.80;99.90
21481;DHT22;10902;48.158;8.634;2023-02-28T06:37:24;-3.70;99.90
21481;DHT22;10902;48.158;8.634;2023-02-28T06:39:51;-3.60;99.90
21481;DHT22;10902;48.158;8.634;2023-02-28T06:42:17;-3.60;99.90
21481;DHT22;10902;48.158;8.634;2023-02-28T06:44:43;-3.50;99.90
21481;DHT22;10902;48.158;8.634;2023-02-28T06:47:09;-3.50;99.90
21481;DHT22;10902;48.158;8.634;2023-02-28T06:49:35;-3.40;99.90
21481;DHT22;10902;48.158;8.634;2023-02-28T06:52:02;-3.50;99.90
21481;DHT22;10902;48.158;8.634;2023-02-28T06:54:28;-3.40;99.90
21481;DHT22;10902;48.158;8.634;2023-02-28T06:56:53;-3.40;99.90
21481;DHT22;10902;48.158;8.634;2023-02-28T06:59:22;-3.50;99.90
21481;DHT22;10902;48.158;8.634;2023-02-28T07:01:47;-3.50;99.90
21481;DHT22;10902;48.158;8.634;2023-02-28T07:04:13;-3.60;99.90
21481;DHT22;10902;48.158;8.634;2023-02-28T07:06:38;-3.50;99.90
21481;DHT22;10902;48.158;8.634;2023-02-28T07:09:04;-3.50;99.90
21481;DHT22;10902;48.158;8.634;2023-02-28T07:11:30;-3.40;99.90
21481;DHT22;10902;48.158;8.634;2023-02-28T07:13:56;-3.30;99.90
21481;DHT22;10902;48.158;8.634;2023-02-28T07:16:23;-3.20;99.90
21481;DHT22;10902;48.158;8.634;2023-02-28T07:18:51;-3.40;99.90
21481;DHT22;10902;48.158;8.634;2023-02-28T07:21:17;-3.40;99.90
21481;DHT22;10902;48.158;8.634;2023-02-28T07:23:42;-3.40;99.90
21481;DHT22;10902;48.158;8.634;2023-02-28T07:26:13;-3.20;99.90
21481;DHT22;10902;48.158;8.634;2023-02-28T07:28:41;-3.20;99.90
21481;DHT22;10902;48.158;8.634;2023-02-28T07:31:08;-3.20;99.90
21481;DHT22;10902;48.158;8.634;2023-02-28T07:33:35;-3.10;99.90
21481;DHT22;10902;48.158;8.634;2023-02-28T07:36:05;-3.10;99.90
21481;DHT22;10902;48.158;8.634;2023-02-28T07:38:34;-3.00;99.90
21481;DHT22;10902;48.158;8.634;2023-02-28T07:41:01;-3.00;99.90
21481;DHT22;10902;48.158;8.634;2023-02-28T07:43:30;-3.00;99.90
21481;DHT22;10902;48.158;8.634;2023-02-28T07:45:55;-2.90;99.90
21481;DHT22;10902;48.158;8.634;2023-02-28T07:48:26;-2.80;99.90
21481;DHT22;10902;48.158;8.634;2023-02-28T07:50:55;-2.80;99.90
21481;DHT22;10902;48.158;8.634;2023-02-28T07:53:21;-2.80;99.90
21481;DHT22;10902;48.158;8.634;2023-02-28T07:55:47;-3.00;99.90
21481;DHT22;10902;48.158;8.634;2023-02-28T07:58:13;-2.80;99.90
21481;DHT22;10902;48.158;8.634;2023-02-28T08:00:38;-2.70;99.90
21481;DHT22;10902;48.158;8.634;2023-02-28T08:03:04;-2.70;99.90
21481;DHT22;10902;48.158;8.634;2023-02-28T08:05:29;-2.60;99.90
21481;DHT22;10902;48.158;8.634;2023-02-28T08:07:56;-2.70;99.90
21481;DHT22;10902;48.158;8.634;2023-02-28T08:10:22;-2.70;99.90
21481;DHT22;10902;48.158;8.634;2023-02-28T08:12:49;-2.50;99.90
21481;DHT22;10902;48.158;8.634;2023-02-28T08:15:14;-2.50;99.90
21481;DHT22;10902;48.158;8.634;2023-02-28T08:17:40;-2.50;99.90
21481;DHT22;10902;48.158;8.634;2023-02-28T08:20:06;-2.40;99.90
21481;DHT22;10902;48.158;8.634;2023-02-28T08:22:32;-2.40;99.90
21481;DHT22;10902;48.158;8.634;2023-02-28T08:24:57;-2.30;99.90
21481;DHT22;10902;48.158;8.634;2023-02-28T08:27:23;-2.20;99.90
21481;DHT22;10902;48.158;8.634;2023-02-28T08:29:48;-2.20;99.90
21481;DHT22;10902;48.158;8.634;2023-02-28T08:32:14;-2.10;99.90
21481;DHT22;10902;48.158;8.634;2023-02-28T08:34:40;-1.90;99.90
21481;DHT22;10902;48.158;8.634;2023-02-28T08:37:06;-1.90;99.90
21481;DHT22;10902;48.158;8.634;2023-02-28T08:39:34;-1.90;99.90
21481;DHT22;10902;48.158;8.634;2023-02-28T08:42:00;-1.90;99.90
21481;DHT22;10902;48.158;8.634;2023-02-28T08:44:26;-1.80;99.90
21481;DHT22;10902;48.158;8.634;2023-02-28T08:46:52;-1.80;99.90
21481;DHT22;10902;48.158;8.634;2023-02-28T08:49:18;-1.90;99.90
21481;DHT22;10902;48.158;8.634;2023-02-28T08:51:44;-1.80;99.90
21481;DHT22;10902;48.158;8.634;2023-02-28T08:54:10;-1.70;99.90
21481;DHT22;10902;48.158;8.634;2023-02-28T08:56:38;-1.60;99.90
21481;DHT22;10902;48.158;8.634;2023-02-28T08:59:03;-1.60;99.90
21481;DHT22;10902;48.158;8.634;2023-02-28T09:01:30;-1.50;99.90
21481;DHT22;10902;48.158;8.634;2023-02-28T09:03:57;-1.40;99.90
21481;DHT22;10902;48.158;8.634;2023-02-28T09:06:25;-1.40;99.90
21481;DHT22;10902;48.158;8.634;2023-02-28T09:08:52;-1.30;99.90
21481;DHT22;10902;48.158;8.634;2023-02-28T09:11:18;-1.30;99.90
21481;DHT22;10902;48.158;8.634;2023-02-28T09:13:45;-1.20;99.90
21481;DHT22;10902;48.158;8.634;2023-02-28T09:16:13;-1.10;99.90
21481;DHT22;10902;48.158;8.634;2023-02-28T09:18:40;-0.90;99.90
21481;DHT22;10902;48.158;8.634;2023-02-28T09:21:07;-0.70;99.90
21481;DHT22;10902;48.158;8.634;2023-02-28T09:23:34;-0.80;99.90
21481;DHT22;10902;48.158;8.634;2023-02-28T09:25:59;-0.80;99.90
21481;DHT22;10902;48.158;8.634;2023-02-28T09:28:25;-0.80;99.90
21481;DHT22;10902;48.158;8.634;2023-02-28T09:30:52;-0.90;99.90
21481;DHT22;10902;48.158;8.634;2023-02-28T09:33:20;-0.80;99.90
21481;DHT22;10902;48.158;8.634;2023-02-28T09:35:47;-0.90;99.90
21481;DHT22;10902;48.158;8.634;2023-02-28T09:38:12;-0.90;99.90
21481;DHT22;10902;48.158;8.634;2023-02-28T09:40:53;-1.00;99.90
21481;DHT22;10902;48.158;8.634;2023-02-28T09:43:22;-1.00;99.90
21481;DHT22;10902;48.158;8.634;2023-02-28T09:45:56;-1.00;99.90
21481;DHT22;10902;48.158;8.634;2023-02-28T09:48:32;-0.90;99.90
21481;DHT22;10902;48.158;8.634;2023-02-28T09:51:28;-0.90;99.90
21481;DHT22;10902;48.158;8.634;2023-02-28T09:53:55;-0.90;99.90
21481;DHT22;10902;48.158;8.634;2023-02-28T09:56:24;-0.90;99.90
21481;DHT22;10902;48.158;8.634;2023-02-28T09:59:09;-0.70;99.90
21481;DHT22;10902;48.158;8.634;2023-02-28T10:07:50;-0.70;99.90
21481;DHT22;10902;48.158;8.634;2023-02-28T10:12:47;-0.70;99.90
21481;DHT22;10902;48.158;8.634;2023-02-28T10:15:14;-0.50;99.90
21481;DHT22;10902;48.158;8.634;2023-02-28T10:17:43;-0.50;99.90
21481;DHT22;10902;48.158;8.634;2023-02-28T10:20:17;-0.40;99.90
21481;DHT22;10902;48.158;8.634;2023-02-28T10:25:33;-0.40;99.90
21481;DHT22;10902;48.158;8.634;2023-02-28T10:28:14;-0.20;99.90
21481;DHT22;10902;48.158;8.634;2023-02-28T10:30:51;-0.20;99.90
21481;DHT22;10902;48.158;8.634;2023-02-28T10:33:31;-0.20;99.90
21481;DHT22;10902;48.158;8.634;2023-02-28T10:35:58;-0.30;99.90
21481;DHT22;10902;48.158;8.634;2023-02-28T10:38:26;-0.30;99.90
21481;DHT22;10902;48.158;8.634;2023-02-28T10:41:07;-0.20;99.90
21481;DHT22;10902;48.158;8.634;2023-02-28T10:43:34;-0.30;99.90
21481;DHT22;10902;48.158;8.634;2023-02-28T10:51:14;0.00;99.90
21481;DHT22;10902;48.158;8.634;2023-02-28T10:53:52;0.40;99.90
21481;DHT22;10902;48.158;8.634;2023-02-28T10:56:22;0.40;99.90
21481;DHT22;10902;48.158;8.634;2023-02-28T10:59:03;0.50;99.90
21481;DHT22;10902;48.158;8.634;2023-02-28T11:01:36;0.60;99.90
21481;DHT22;10902;48.158;8.634;2023-02-28T11:04:23;0.70;99.90
21481;DHT22;10902;48.158;8.634;2023-02-28T11:07:20;0.70;99.90
21481;DHT22;10902;48.158;8.634;2023-02-28T11:09:49;0.60;99.90
21481;DHT22;10902;48.158;8.634;2023-02-28T11:12:38;0.40;99.90
21481;DHT22;10902;48.158;8.634;2023-02-28T11:15:28;0.50;99.90
21481;DHT22;10902;48.158;8.634;2023-02-28T11:17:58;0.40;99.90
21481;DHT22;10902;48.158;8.634;2023-02-28T11:20:30;0.50;99.90
21481;DHT22;10902;48.158;8.634;2023-02-28T11:22:58;0.20;99.90
21481;DHT22;10902;48.158;8.634;2023-02-28T11:25:32;0.30;99.90
21481;DHT22;10902;48.158;8.634;2023-02-28T11:28:03;0.20;99.90
21481;DHT22;10902;48.158;8.634;2023-02-28T11:30:33;0.50;99.90
21481;DHT22;10902;48.158;8.634;2023-02-28T11:33:00;0.70;99.90
21481;DHT22;10902;48.158;8.634;2023-02-28T11:35:38;1.00;99.90
21481;DHT22;10902;48.158;8.634;2023-02-28T11:38:09;1.00;99.90
21481;DHT22;10902;48.158;8.634;2023-02-28T11:46:27;0.80;99.90
21481;DHT22;10902;48.158;8.634;2023-02-28T11:51:54;0.90;99.90
21481;DHT22;10902;48.158;8.634;2023-02-28T11:56:58;1.10;99.90
21481;DHT22;10902;48.158;8.634;2023-02-28T12:05:01;1.00;99.90
21481;DHT22;10902;48.158;8.634;2023-02-28T12:10:21;1.10;99.90
21481;DHT22;10902;48.158;8.634;2023-02-28T12:23:52;2.10;99.90
21481;DHT22;10902;48.158;8.634;2023-02-28T12:29:14;2.30;99.90
21481;DHT22;10902;48.158;8.634;2023-02-28T12:34:20;2.10;99.90
21481;DHT22;10902;48.158;8.634;2023-02-28T12:36:49;2.20;99.90
21481;DHT22;10902;48.158;8.634;2023-02-28T12:41:51;2.70;99.90
21481;DHT22;10902;48.158;8.634;2023-02-28T12:44:37;2.30;99.90
21481;DHT22;10902;48.158;8.634;2023-02-28T12:47:11;2.20;99.90
21481;DHT22;10902;48.158;8.634;2023-02-28T12:50:21;2.20;99.90
21481;DHT22;10902;48.158;8.634;2023-02-28T13:00:34;3.00;99.90
21481;DHT22;10902;48.158;8.634;2023-02-28T13:03:23;3.00;99.90
21481;DHT22;10902;48.158;8.634;2023-02-28T13:09:05;2.90;99.90
21481;DHT22;10902;48.158;8.634;2023-02-28T13:14:16;2.80;99.90
21481;DHT22;10902;48.158;8.634;2023-02-28T13:16:59;2.50;99.90
21481;DHT22;10902;48.158;8.634;2023-02-28T13:19:31;2.60;99.90
21481;DHT22;10902;48.158;8.634;2023-02-28T13:21:58;2.60;99.90
21481;DHT22;10902;48.158;8.634;2023-02-28T13:24:53;2.70;99.90
21481;DHT22;10902;48.158;8.634;2023-02-28T13:29:51;2.70;99.90
21481;DHT22;10902;48.158;8.634;2023-02-28T13:32:29;2.90;99.90
21481;DHT22;10902;48.158;8.634;2023-02-28T13:39:49;2.80;99.90
21481;DHT22;10902;48.158;8.634;2023-02-28T14:00:58;6.70;99.90
21481;DHT22;10902;48.158;8.634;2023-02-28T14:06:33;8.00;99.90
21481;DHT22;10902;48.158;8.634;2023-02-28T14:11:37;7.10;99.90
21481;DHT22;10902;48.158;8.634;2023-02-28T14:14:05;7.70;99.90
21481;DHT22;10902;48.158;8.634;2023-02-28T14:19:21;7.60;99.90
21481;DHT22;10902;48.158;8.634;2023-02-28T14:33:23;7.60;99.90
21481;DHT22;10902;48.158;8.634;2023-02-28T14:38:23;7.50;99.90
21481;DHT22;10902;48.158;8.634;2023-02-28T14:40:52;8.50;99.90
21481;DHT22;10902;48.158;8.634;2023-02-28T14:43:24;9.50;99.90
21481;DHT22;10902;48.158;8.634;2023-02-28T14:45:52;7.90;99.90
21481;DHT22;10902;48.158;8.634;2023-02-28T14:48:20;7.60;99.90
21481;DHT22;10902;48.158;8.634;2023-02-28T14:51:00;7.80;99.90
21481;DHT22;10902;48.158;8.634;2023-02-28T14:53:29;7.60;99.90
21481;DHT22;10902;48.158;8.634;2023-02-28T14:55:55;7.10;99.90
21481;DHT22;10902;48.158;8.634;2023-02-28T14:58:24;7.80;99.90
21481;DHT22;10902;48.158;8.634;2023-02-28T15:00:52;8.00;99.90
21481;DHT22;10902;48.158;8.634;2023-02-28T15:03:20;8.50;99.90
21481;DHT22;10902;48.158;8.634;2023-02-28T15:05:58;8.60;99.90
21481;DHT22;10902;48.158;8.634;2023-02-28T15:08:24;8.10;99.90
21481;DHT22;10902;48.158;8.634;2023-02-28T15:10:52;8.30;99.90
21481;DHT22;10902;48.158;8.634;2023-02-28T15:13:19;8.20;99.90
21481;DHT22;10902;48.158;8.634;2023-02-28T15:18:52;8.70;99.90
21481;DHT22;10902;48.158;8.634;2023-02-28T15:21:23;8.60;99.90
21481;DHT22;10902;48.158;8.634;2023-02-28T15:23:56;7.60;99.90
21481;DHT22;10902;48.158;8.634;2023-02-28T15:26:27;7.20;99.90
21481;DHT22;10902;48.158;8.634;2023-02-28T15:29:06;6.90;99.90
21481;DHT22;10902;48.158;8.634;2023-02-28T15:31:40;7.10;99.90
21481;DHT22;10902;48.158;8.634;2023-02-28T15:34:34;7.10;99.90
21481;DHT22;10902;48.158;8.634;2023-02-28T15:37:01;7.40;99.90
21481;DHT22;10902;48.158;8.634;2023-02-28T15:39:28;7.50;99.90
21481;DHT22;10902;48.158;8.634;2023-02-28T15:42:19;6.90;99.90
21481;DHT22;10902;48.158;8.634;2023-02-28T15:44:45;6.80;99.90
21481;DHT22;10902;48.158;8.634;2023-02-28T15:47:30;7.10;99.90
21481;DHT22;10902;48.158;8.634;2023-02-28T15:50:03;6.70;99.90
21481;DHT22;10902;48.158;8.634;2023-02-28T15:52:32;6.80;99.90
21481;DHT22;10902;48.158;8.634;2023-02-28T15:54:59;7.00;99.90
21481;DHT22;10902;48.158;8.634;2023-02-28T15:57:32;6.50;99.90
21481;DHT22;10902;48.158;8.634;2023-02-28T16:00:00;6.80;99.90
21481;DHT22;10902;48.158;8.634;2023-02-28T16:02:36;7.00;99.90
21481;DHT22;10902;48.158;8.634;2023-02-28T16:07:36;6.30;99.90
21481;DHT22;10902;48.158;8.634;2023-02-28T16:10:02;6.30;99.90
21481;DHT22;10902;48.158;8.634;2023-02-28T16:12:30;6.00;99.90
21481;DHT22;10902;48.158;8.634;2023-02-28T16:14:58;5.90;99.90
21481;DHT22;10902;48.158;8.634;2023-02-28T16:17:33;5.50;99.90
21481;DHT22;10902;48.158;8.634;2023-02-28T16:19:59;5.50;99.90
21481;DHT22;10902;48.158;8.634;2023-02-28T16:22:24;5.30;99.90
21481;DHT22;10902;48.158;8.634;2023-02-28T16:24:50;5.00;99.90
21481;DHT22;10902;48.158;8.634;2023-02-28T16:27:24;5.00;99.90
21481;DHT22;10902;48.158;8.634;2023-02-28T16:29:50;4.90;99.90
21481;DHT22;10902;48.158;8.634;2023-02-28T16:32:16;4.90;99.90
21481;DHT22;10902;48.158;8.634;2023-02-28T16:34:43;4.80;99.90
21481;DHT22;10902;48.158;8.634;2023-02-28T16:37:17;4.40;99.90
21481;DHT22;10902;48.158;8.634;2023-02-28T16:39:44;4.20;99.90
21481;DHT22;10902;48.158;8.634;2023-02-28T16:42:30;4.00;99.90
21481;DHT22;10902;48.158;8.634;2023-02-28T16:44:56;4.00;99.90
21481;DHT22;10902;48.158;8.634;2023-02-28T16:47:23;3.60;99.90
21481;DHT22;10902;48.158;8.634;2023-02-28T16:49:48;3.40;99.90
21481;DHT22;10902;48.158;8.634;2023-02-28T16:52:14;3.20;99.90
21481;DHT22;10902;48.158;8.634;2023-02-28T16:54:41;3.00;99.90
21481;DHT22;10902;48.158;8.634;2023-02-28T16:57:17;2.70;99.90
21481;DHT22;10902;48.158;8.634;2023-02-28T16:59:44;2.50;99.90
21481;DHT22;10902;48.158;8.634;2023-02-28T17:02:15;2.20;99.90
21481;DHT22;10902;48.158;8.634;2023-02-28T17:04:41;1.90;99.90
21481;DHT22;10902;48.158;8.634;2023-02-28T17:07:11;1.50;99.90
21481;DHT22;10902;48.158;8.634;2023-02-28T17:09:37;1.30;99.90
21481;DHT22;10902;48.158;8.634;2023-02-28T17:12:03;1.10;99.90
21481;DHT22;10902;48.158;8.634;2023-02-28T17:14:29;0.90;99.90
21481;DHT22;10902;48.158;8.634;2023-02-28T17:16:54;0.70;99.90
21481;DHT22;10902;48.158;8.634;2023-02-28T17:19:20;0.50;99.90
21481;DHT22;10902;48.158;8.634;2023-02-28T17:21:45;0.40;99.90
21481;DHT22;10902;48.158;8.634;2023-02-28T17:24:12;0.40;99.90
21481;DHT22;10902;48.158;8.634;2023-02-28T17:26:39;0.30;99.90
21481;DHT22;10902;48.158;8.634;2023-02-28T17:29:24;0.30;99.90
21481;DHT22;10902;48.158;8.634;2023-02-28T17:31:49;0.20;99.90
21481;DHT22;10902;48.158;8.634;2023-02-28T17:34:15;0.10;99.90
21481;DHT22;10902;48.158;8.634;2023-02-28T17:36:44;0.00;99.90
21481;DHT22;10902;48.158;8.634;2023-02-28T17:39:11;-0.10;99.90
21481;DHT22;10902;48.158;8.634;2023-02-28T17:41:39;-0.20;99.90
21481;DHT22;10902;48.158;8.634;2023-02-28T17:44:06;-0.20;99.90
21481;DHT22;10902;48.158;8.634;2023-02-28T17:46:32;-0.30;99.90
21481;DHT22;10902;48.158;8.634;2023-02-28T17:48:57;-0.40;99.90
21481;DHT22;10902;48.158;8.634;2023-02-28T17:51:23;-0.40;99.90
21481;DHT22;10902;48.158;8.634;2023-02-28T17:53:50;-0.50;99.90
21481;DHT22;10902;48.158;8.634;2023-02-28T17:56:25;-0.70;99.90
21481;DHT22;10902;48.158;8.634;2023-02-28T17:58:53;-0.70;99.90
21481;DHT22;10902;48.158;8.634;2023-02-28T18:01:19;-0.70;99.90
21481;DHT22;10902;48.158;8.634;2023-02-28T18:03:46;-0.60;99.90
21481;DHT22;10902;48.158;8.634;2023-02-28T18:06:21;-0.60;99.90
21481;DHT22;10902;48.158;8.634;2023-02-28T18:08:47;-0.60;99.90
21481;DHT22;10902;48.158;8.634;2023-02-28T18:11:14;-0.70;99.90
21481;DHT22;10902;48.158;8.634;2023-02-28T18:13:51;-0.60;99.90
21481;DHT22;10902;48.158;8.634;2023-02-28T18:16:18;-0.60;99.90
21481;DHT22;10902;48.158;8.634;2023-02-28T18:18:44;-0.70;99.90
21481;DHT22;10902;48.158;8.634;2023-02-28T18:21:11;-0.70;99.90
21481;DHT22;10902;48.158;8.634;2023-02-28T18:23:37;-0.70;99.90